sensor_id;sensor_type;location;lat;lon;timestamp;pressure;altitude;pressure_sealevel;temperature;humidity
3812;BME280;1921;49.368;11.068;2023-04-06T00:01:41;98028.59;;;-0.10;70.24
3812;BME280;1921;49.368;11.068;2023-04-06T00:04:06;97995.97;;;-0.34;70.83
3812;BME280;1921;49.368;11.068;2023-04-06T00:06:33;97992.69;;;-0.36;71.15
3812;BME280;1921;49.368;11.068;2023-04-06T00:08:59;97983.03;;;-0.45;70.72
3812;BME280;1921;49.368;11.068;2023-04-06T00:11:26;98028.09;;;-0.15;70.61
3812;BME280;1921;49.368;11.068;2023-04-06T00:13:51;97982.09;;;-0.44;70.83
3812;BME280;1921;49.368;11.068;2023-04-06T00:16:17;98026.44;;;-0.16;70.90
3812;BME280;1921;49.368;11.068;2023-04-06T00:18:43;98016.69;;;-0.24;70.57
3812;BME280;1921;49.368;11.068;2023-04-06T00:21:12;97978.28;;;-0.51;70.98
3812;BME280;1921;49.368;11.068;2023-04-06T00:23:39;98019.25;;;-0.24;71.80
3812;BME280;1921;49.368;11.068;2023-04-06T00:26:04;98002.00;;;-0.35;71.37
3812;BME280;1921;49.368;11.068;2023-04-06T00:28:30;98011.97;;;-0.30;71.56
3812;BME280;1921;49.368;11.068;2023-04-06T00:30:56;97963.66;;;-0.62;71.48
3812;BME280;1921;49.368;11.068;2023-04-06T00:33:22;97979.22;;;-0.52;71.06
3812;BME280;1921;49.368;11.068;2023-04-06T00:35:48;97970.28;;;-0.59;71.47
3812;BME280;1921;49.368;11.068;2023-04-06T00:38:15;97958.09;;;-0.68;71.46
3812;BME280;1921;49.368;11.068;2023-04-06T00:40:42;97985.56;;;-0.58;71.12
3812;BME280;1921;49.368;11.068;2023-04-06T00:43:10;97955.00;;;-0.73;71.81
3812;BME280;1921;49.368;11.068;2023-04-06T00:45:41;97955.94;;;-0.74;72.02
3812;BME280;1921;49.368;11.068;2023-04-06T00:48:07;97941.25;;;-0.85;72.18
3812;BME280;1921;49.368;11.068;2023-04-06T00:50:34;97954.88;;;-0.85;71.87
3812;BME280;1921;49.368;11.068;2023-04-06T00:53:00;97963.16;;;-0.81;72.44
3812;BME280;1921;49.368;11.068;2023-04-06T00:55:27;97981.53;;;-0.74;72.26
3812;BME280;1921;49.368;11.068;2023-04-06T00:57:53;97934.91;;;-1.06;72.56
3812;BME280;1921;49.368;11.068;2023-04-06T01:00:20;97957.38;;;-0.97;73.06
3812;BME280;1921;49.368;11.068;2023-04-06T01:02:46;98018.41;;;-0.64;73.14
3812;BME280;1921;49.368;11.068;2023-04-06T01:05:13;97941.78;;;-1.07;73.58
3812;BME280;1921;49.368;11.068;2023-04-06T01:07:39;97994.50;;;-0.77;73.36
3812;BME280;1921;49.368;11.068;2023-04-06T01:10:05;97969.34;;;-0.98;73.79
3812;BME280;1921;49.368;11.068;2023-04-06T01:12:31;97945.75;;;-1.16;74.01
3812;BME280;1921;49.368;11.068;2023-04-06T01:14:56;97971.03;;;-1.11;73.73
3812;BME280;1921;49.368;11.068;2023-04-06T01:17:22;98011.47;;;-0.89;74.43
3812;BME280;1921;49.368;11.068;2023-04-06T01:19:48;97955.44;;;-1.21;74.57
3812;BME280;1921;49.368;11.068;2023-04-06T01:22:18;97937.28;;;-1.30;73.99
3812;BME280;1921;49.368;11.068;2023-04-06T01:24:45;97955.00;;;-1.27;74.68
3812;BME280;1921;49.368;11.068;2023-04-06T01:27:11;97974.59;;;-1.14;74.37
3812;BME280;1921;49.368;11.068;2023-04-06T01:29:37;97953.53;;;-1.31;74.67
3812;BME280;1921;49.368;11.068;2023-04-06T01:32:07;97938.75;;;-1.41;74.94
3812;BME280;1921;49.368;11.068;2023-04-06T01:34:33;97943.69;;;-1.38;74.70
3812;BME280;1921;49.368;11.068;2023-04-06T01:36:58;97929.19;;;-1.51;74.84
3812;BME280;1921;49.368;11.068;2023-04-06T01:39:24;97926.72;;;-1.53;75.65
3812;BME280;1921;49.368;11.068;2023-04-06T01:41:50;97954.44;;;-1.32;76.40
3812;BME280;1921;49.368;11.068;2023-04-06T01:44:17;97946.59;;;-1.44;76.02
3812;BME280;1921;49.368;11.068;2023-04-06T01:46:44;97925.25;;;-1.57;76.30
3812;BME280;1921;49.368;11.068;2023-04-06T01:49:11;97958.69;;;-1.46;75.81
3812;BME280;1921;49.368;11.068;2023-04-06T01:51:37;97985.41;;;-1.23;76.60
3812;BME280;1921;49.368;11.068;2023-04-06T01:54:03;97942.63;;;-1.48;76.02
3812;BME280;1921;49.368;11.068;2023-04-06T01:56:29;97916.34;;;-1.64;76.63
3812;BME280;1921;49.368;11.068;2023-04-06T01:58:55;97935.69;;;-1.60;76.06
3812;BME280;1921;49.368;11.068;2023-04-06T02:01:21;97973.38;;;-1.35;76.59
3812;BME280;1921;49.368;11.068;2023-04-06T02:03:47;97937.06;;;-1.54;76.65
3812;BME280;1921;49.368;11.068;2023-04-06T02:06:13;97887.88;;;-1.86;76.70
3812;BME280;1921;49.368;11.068;2023-04-06T02:08:39;97958.69;;;-1.46;76.91
3812;BME280;1921;49.368;11.068;2023-04-06T02:11:05;97929.13;;;-1.64;76.98
3812;BME280;1921;49.368;11.068;2023-04-06T02:13:30;97905.13;;;-1.76;76.78
3812;BME280;1921;49.368;11.068;2023-04-06T02:15:56;97938.16;;;-1.58;76.68
3812;BME280;1921;49.368;11.068;2023-04-06T02:18:22;97958.13;;;-1.51;76.97
3812;BME280;1921;49.368;11.068;2023-04-06T02:20:48;97931.22;;;-1.71;77.25
3812;BME280;1921;49.368;11.068;2023-04-06T02:23:14;97916.53;;;-1.81;77.54
3812;BME280;1921;49.368;11.068;2023-04-06T02:25:40;97925.09;;;-1.68;77.18
3812;BME280;1921;49.368;11.068;2023-04-06T02:28:06;97886.09;;;-1.99;77.04
3812;BME280;1921;49.368;11.068;2023-04-06T02:30:32;97899.81;;;-1.87;77.71
3812;BME280;1921;49.368;11.068;2023-04-06T02:33:01;97927.75;;;-1.70;77.95
3812;BME280;1921;49.368;11.068;2023-04-06T02:35:31;97883.97;;;-1.92;78.19
3812;BME280;1921;49.368;11.068;2023-04-06T02:37:57;97971.81;;;-1.38;77.81
3812;BME280;1921;49.368;11.068;2023-04-06T02:40:23;97920.72;;;-1.66;77.93
3812;BME280;1921;49.368;11.068;2023-04-06T02:42:48;97949.38;;;-1.47;78.36
3812;BME280;1921;49.368;11.068;2023-04-06T02:45:14;97939.06;;;-1.59;78.18
3812;BME280;1921;49.368;11.068;2023-04-06T02:47:41;97911.16;;;-1.77;78.07
3812;BME280;1921;49.368;11.068;2023-04-06T02:50:07;97898.84;;;-1.84;78.27
3812;BME280;1921;49.368;11.068;2023-04-06T02:52:33;97923.44;;;-1.69;78.31
3812;BME280;1921;49.368;11.068;2023-04-06T02:54:58;97963.53;;;-1.41;78.00
3812;BME280;1921;49.368;11.068;2023-04-06T02:57:24;97939.16;;;-1.61;78.15
3812;BME280;1921;49.368;11.068;2023-04-06T02:59:50;97893.34;;;-1.78;78.14
3812;BME280;1921;49.368;11.068;2023-04-06T03:02:16;97908.22;;;-1.71;77.96
3812;BME280;1921;49.368;11.068;2023-04-06T03:04:42;97934.56;;;-1.56;77.65
3812;BME280;1921;49.368;11.068;2023-04-06T03:07:08;97979.47;;;-1.38;78.10
3812;BME280;1921;49.368;11.068;2023-04-06T03:09:36;97921.81;;;-1.70;78.26
3812;BME280;1921;49.368;11.068;2023-04-06T03:12:02;97947.09;;;-1.51;78.68
3812;BME280;1921;49.368;11.068;2023-04-06T03:14:28;97934.94;;;-1.62;78.30
3812;BME280;1921;49.368;11.068;2023-04-06T03:16:53;97931.94;;;-1.69;79.19
3812;BME280;1921;49.368;11.068;2023-04-06T03:19:19;97981.16;;;-1.37;78.82
3812;BME280;1921;49.368;11.068;2023-04-06T03:21:45;97960.53;;;-1.48;78.79
3812;BME280;1921;49.368;11.068;2023-04-06T03:24:11;97911.25;;;-1.78;78.95
3812;BME280;1921;49.368;11.068;2023-04-06T03:26:38;97942.81;;;-1.65;79.20
3812;BME280;1921;49.368;11.068;2023-04-06T03:29:03;97930.50;;;-1.73;78.94
3812;BME280;1921;49.368;11.068;2023-04-06T03:31:29;97916.53;;;-1.81;78.49
3812;BME280;1921;49.368;11.068;2023-04-06T03:33:55;97932.03;;;-1.70;78.74
3812;BME280;1921;49.368;11.068;2023-04-06T03:36:21;97910.16;;;-1.88;78.65
3812;BME280;1921;49.368;11.068;2023-04-06T03:38:47;97952.50;;;-1.70;79.84
3812;BME280;1921;49.368;11.068;2023-04-06T03:41:13;97970.31;;;-1.54;79.26
3812;BME280;1921;49.368;11.068;2023-04-06T03:43:38;97945.84;;;-1.73;78.84
3812;BME280;1921;49.368;11.068;2023-04-06T03:46:04;97896.47;;;-2.02;79.04
3812;BME280;1921;49.368;11.068;2023-04-06T03:48:30;97934.41;;;-1.81;79.07
3812;BME280;1921;49.368;11.068;2023-04-06T03:50:55;97918.19;;;-1.95;79.81
3812;BME280;1921;49.368;11.068;2023-04-06T03:53:21;97937.88;;;-1.82;79.78
3812;BME280;1921;49.368;11.068;2023-04-06T03:55:47;97960.88;;;-1.68;79.37
3812;BME280;1921;49.368;11.068;2023-04-06T03:58:13;97954.25;;;-1.85;79.45
3812;BME280;1921;49.368;11.068;2023-04-06T04:00:38;97928.41;;;-1.95;79.68
3812;BME280;1921;49.368;11.068;2023-04-06T04:03:04;97991.19;;;-1.62;80.04
3812;BME280;1921;49.368;11.068;2023-04-06T04:05:30;97988.47;;;-1.73;80.17
3812;BME280;1921;49.368;11.068;2023-04-06T04:07:56;97962.19;;;-1.90;79.38
3812;BME280;1921;49.368;11.068;2023-04-06T04:10:21;97926.84;;;-2.11;80.09
3812;BME280;1921;49.368;11.068;2023-04-06T04:12:47;97940.09;;;-2.05;80.21
3812;BME280;1921;49.368;11.068;2023-04-06T04:15:13;97918.00;;;-2.20;80.85
3812;BME280;1921;49.368;11.068;2023-04-06T04:17:38;97943.38;;;-2.03;80.81
3812;BME280;1921;49.368;11.068;2023-04-06T04:20:05;97933.06;;;-2.01;80.90
3812;BME280;1921;49.368;11.068;2023-04-06T04:22:31;97944.84;;;-1.99;81.00
3812;BME280;1921;49.368;11.068;2023-04-06T04:24:57;97962.06;;;-1.88;81.20
3812;BME280;1921;49.368;11.068;2023-04-06T04:27:22;97986.19;;;-1.78;80.87
3812;BME280;1921;49.368;11.068;2023-04-06T04:29:48;97921.66;;;-2.10;80.53
3812;BME280;1921;49.368;11.068;2023-04-06T04:32:14;97921.72;;;-2.11;80.89
3812;BME280;1921;49.368;11.068;2023-04-06T04:34:40;97918.75;;;-2.04;80.60
3812;BME280;1921;49.368;11.068;2023-04-06T04:37:06;97944.38;;;-1.91;80.23
3812;BME280;1921;49.368;11.068;2023-04-06T04:39:32;97942.00;;;-1.94;80.20
3812;BME280;1921;49.368;11.068;2023-04-06T04:41:58;97991.28;;;-1.64;80.62
3812;BME280;1921;49.368;11.068;2023-04-06T04:44:24;97907.06;;;-2.22;80.68
3812;BME280;1921;49.368;11.068;2023-04-06T04:46:49;97969.59;;;-1.85;80.30
3812;BME280;1921;49.368;11.068;2023-04-06T04:49:15;98004.72;;;-1.60;80.55
3812;BME280;1921;49.368;11.068;2023-04-06T04:51:41;97982.19;;;-1.68;80.82
3812;BME280;1921;49.368;11.068;2023-04-06T04:54:07;97942.56;;;-1.89;80.87
3812;BME280;1921;49.368;11.068;2023-04-06T04:56:32;97900.09;;;-2.06;80.93
3812;BME280;1921;49.368;11.068;2023-04-06T04:58:58;98009.09;;;-1.33;80.28
3812;BME280;1921;49.368;11.068;2023-04-06T05:01:24;98009.72;;;-1.30;80.45
3812;BME280;1921;49.368;11.068;2023-04-06T05:03:49;97949.38;;;-1.47;80.19
3812;BME280;1921;49.368;11.068;2023-04-06T05:06:16;97980.78;;;-1.03;79.65
3812;BME280;1921;49.368;11.068;2023-04-06T05:08:44;97906.66;;;-1.18;77.80
3812;BME280;1921;49.368;11.068;2023-04-06T05:11:10;97991.09;;;-0.51;75.69
3812;BME280;1921;49.368;11.068;2023-04-06T05:13:36;97955.84;;;-0.60;75.27
3812;BME280;1921;49.368;11.068;2023-04-06T05:16:02;97965.59;;;-0.52;73.71
3812;BME280;1921;49.368;11.068;2023-04-06T05:18:27;97981.75;;;-0.12;73.35
3812;BME280;1921;49.368;11.068;2023-04-06T05:20:53;97977.88;;;0.20;71.25
3812;BME280;1921;49.368;11.068;2023-04-06T05:23:19;97939.69;;;0.29;70.29
3812;BME280;1921;49.368;11.068;2023-04-06T05:25:45;97966.00;;;0.93;69.00
3812;BME280;1921;49.368;11.068;2023-04-06T05:28:10;97815.41;;;0.45;68.15
3812;BME280;1921;49.368;11.068;2023-04-06T05:30:39;97985.56;;;1.89;66.80
3812;BME280;1921;49.368;11.068;2023-04-06T05:33:05;97995.56;;;2.39;63.22
3812;BME280;1921;49.368;11.068;2023-04-06T05:35:31;97984.22;;;2.64;63.05
3812;BME280;1921;49.368;11.068;2023-04-06T05:37:57;97991.66;;;3.01;60.95
3812;BME280;1921;49.368;11.068;2023-04-06T05:40:23;97953.25;;;2.97;60.39
3812;BME280;1921;49.368;11.068;2023-04-06T05:42:48;97950.09;;;3.05;58.46
3812;BME280;1921;49.368;11.068;2023-04-06T05:45:15;97959.50;;;3.16;58.86
3812;BME280;1921;49.368;11.068;2023-04-06T05:47:43;97966.06;;;3.20;59.95
3812;BME280;1921;49.368;11.068;2023-04-06T05:50:15;97957.69;;;3.07;59.71
3812;BME280;1921;49.368;11.068;2023-04-06T05:52:41;97951.94;;;3.03;60.46
3812;BME280;1921;49.368;11.068;2023-04-06T05:55:09;97975.31;;;3.22;60.61
3812;BME280;1921;49.368;11.068;2023-04-06T05:57:35;97996.81;;;3.44;60.42
3812;BME280;1921;49.368;11.068;2023-04-06T06:00:01;98011.53;;;3.53;60.59
3812;BME280;1921;49.368;11.068;2023-04-06T06:02:30;97982.88;;;3.35;60.45
3812;BME280;1921;49.368;11.068;2023-04-06T06:04:56;97959.97;;;3.21;60.34
3812;BME280;1921;49.368;11.068;2023-04-06T06:07:23;97956.69;;;3.30;60.97
3812;BME280;1921;49.368;11.068;2023-04-06T06:09:49;98012.06;;;3.68;59.73
3812;BME280;1921;49.368;11.068;2023-04-06T06:12:15;98028.06;;;3.83;60.39
3812;BME280;1921;49.368;11.068;2023-04-06T06:14:41;98012.72;;;3.81;59.56
3812;BME280;1921;49.368;11.068;2023-04-06T06:17:07;97987.72;;;3.82;59.83
3812;BME280;1921;49.368;11.068;2023-04-06T06:19:33;98024.88;;;4.11;59.09
3812;BME280;1921;49.368;11.068;2023-04-06T06:21:59;97953.63;;;3.57;61.42
3812;BME280;1921;49.368;11.068;2023-04-06T06:24:27;98005.66;;;3.62;60.15
3812;BME280;1921;49.368;11.068;2023-04-06T06:26:53;97967.28;;;3.69;64.17
3812;BME280;1921;49.368;11.068;2023-04-06T06:29:19;97964.34;;;3.73;61.46
3812;BME280;1921;49.368;11.068;2023-04-06T06:31:44;97983.84;;;3.87;61.17
3812;BME280;1921;49.368;11.068;2023-04-06T06:34:10;97871.78;;;2.85;61.39
3812;BME280;1921;49.368;11.068;2023-04-06T06:36:38;97965.16;;;3.74;60.36
3812;BME280;1921;49.368;11.068;2023-04-06T06:39:04;97942.34;;;3.58;60.87
3812;BME280;1921;49.368;11.068;2023-04-06T06:41:29;97997.13;;;4.34;58.74
3812;BME280;1921;49.368;11.068;2023-04-06T06:43:55;97937.38;;;3.66;57.12
3812;BME280;1921;49.368;11.068;2023-04-06T06:46:21;97991.66;;;4.48;57.14
3812;BME280;1921;49.368;11.068;2023-04-06T06:48:47;97961.03;;;4.13;57.20
3812;BME280;1921;49.368;11.068;2023-04-06T06:51:12;97998.84;;;4.85;55.44
3812;BME280;1921;49.368;11.068;2023-04-06T06:53:38;97979.72;;;4.57;56.34
3812;BME280;1921;49.368;11.068;2023-04-06T06:56:04;97954.59;;;4.69;54.09
3812;BME280;1921;49.368;11.068;2023-04-06T06:58:30;97971.03;;;5.27;54.57
3812;BME280;1921;49.368;11.068;2023-04-06T07:00:59;98009.03;;;5.85;52.09
3812;BME280;1921;49.368;11.068;2023-04-06T07:03:37;97973.09;;;5.62;53.99
3812;BME280;1921;49.368;11.068;2023-04-06T07:06:03;97960.69;;;5.95;53.48
3812;BME280;1921;49.368;11.068;2023-04-06T07:08:29;97941.88;;;5.93;52.83
3812;BME280;1921;49.368;11.068;2023-04-06T07:10:54;97996.31;;;6.67;51.34
3812;BME280;1921;49.368;11.068;2023-04-06T07:13:23;97952.25;;;6.67;50.75
3812;BME280;1921;49.368;11.068;2023-04-06T07:15:50;97989.25;;;6.60;51.41
3812;BME280;1921;49.368;11.068;2023-04-06T07:18:17;97998.91;;;7.22;49.67
3812;BME280;1921;49.368;11.068;2023-04-06T07:20:43;97969.63;;;7.48;48.81
3812;BME280;1921;49.368;11.068;2023-04-06T07:23:09;97997.28;;;8.01;46.79
3812;BME280;1921;49.368;11.068;2023-04-06T07:25:36;97997.97;;;8.03;46.93
3812;BME280;1921;49.368;11.068;2023-04-06T07:28:03;97980.66;;;8.12;46.69
3812;BME280;1921;49.368;11.068;2023-04-06T07:30:29;97967.38;;;8.15;45.78
3812;BME280;1921;49.368;11.068;2023-04-06T07:32:55;97978.66;;;8.31;45.81
3812;BME280;1921;49.368;11.068;2023-04-06T07:35:23;97928.50;;;8.31;44.36
3812;BME280;1921;49.368;11.068;2023-04-06T07:37:49;97977.19;;;8.89;44.29
3812;BME280;1921;49.368;11.068;2023-04-06T07:40:14;97944.59;;;8.60;43.28
3812;BME280;1921;49.368;11.068;2023-04-06T07:42:40;97933.63;;;8.91;43.14
3812;BME280;1921;49.368;11.068;2023-04-06T07:45:06;98009.25;;;9.64;42.15
3812;BME280;1921;49.368;11.068;2023-04-06T07:47:33;97999.47;;;9.75;42.61
3812;BME280;1921;49.368;11.068;2023-04-06T07:49:59;97979.47;;;9.83;41.89
3812;BME280;1921;49.368;11.068;2023-04-06T07:52:24;97965.63;;;9.91;42.24
3812;BME280;1921;49.368;11.068;2023-04-06T07:54:50;97986.94;;;10.19;40.37
3812;BME280;1921;49.368;11.068;2023-04-06T07:57:16;98019.16;;;10.59;41.32
3812;BME280;1921;49.368;11.068;2023-04-06T07:59:42;97963.25;;;10.53;40.24
3812;BME280;1921;49.368;11.068;2023-04-06T08:02:08;98004.63;;;10.64;40.30
3812;BME280;1921;49.368;11.068;2023-04-06T08:04:35;97983.75;;;11.03;40.31
3812;BME280;1921;49.368;11.068;2023-04-06T08:07:01;97980.94;;;11.36;38.43
3812;BME280;1921;49.368;11.068;2023-04-06T08:09:27;97988.84;;;11.28;38.14
3812;BME280;1921;49.368;11.068;2023-04-06T08:11:53;98018.78;;;11.71;38.20
3812;BME280;1921;49.368;11.068;2023-04-06T08:14:19;97945.97;;;11.45;37.32
3812;BME280;1921;49.368;11.068;2023-04-06T08:16:45;97992.19;;;11.91;37.33
3812;BME280;1921;49.368;11.068;2023-04-06T08:19:11;97972.00;;;11.84;37.57
3812;BME280;1921;49.368;11.068;2023-04-06T08:21:37;97974.47;;;12.01;36.37
3812;BME280;1921;49.368;11.068;2023-04-06T08:24:03;97940.53;;;12.30;36.60
3812;BME280;1921;49.368;11.068;2023-04-06T08:26:29;97938.81;;;12.37;35.53
3812;BME280;1921;49.368;11.068;2023-04-06T08:28:55;98023.13;;;13.13;35.82
3812;BME280;1921;49.368;11.068;2023-04-06T08:31:21;97988.00;;;13.08;36.24
3812;BME280;1921;49.368;11.068;2023-04-06T08:33:46;97968.38;;;13.33;34.46
3812;BME280;1921;49.368;11.068;2023-04-06T08:36:14;97964.78;;;13.56;33.62
3812;BME280;1921;49.368;11.068;2023-04-06T08:38:41;98003.25;;;14.19;32.46
3812;BME280;1921;49.368;11.068;2023-04-06T08:41:12;97967.03;;;14.36;31.83
3812;BME280;1921;49.368;11.068;2023-04-06T08:43:57;97953.56;;;14.80;31.28
3812;BME280;1921;49.368;11.068;2023-04-06T08:46:24;97967.53;;;15.49;30.44
3812;BME280;1921;49.368;11.068;2023-04-06T08:48:58;97974.75;;;15.33;30.73
3812;BME280;1921;49.368;11.068;2023-04-06T08:51:26;97948.53;;;15.47;29.60
3812;BME280;1921;49.368;11.068;2023-04-06T08:53:56;97941.25;;;15.55;28.57
3812;BME280;1921;49.368;11.068;2023-04-06T08:56:24;97959.50;;;15.70;29.11
3812;BME280;1921;49.368;11.068;2023-04-06T08:58:51;98005.63;;;16.26;28.80
3812;BME280;1921;49.368;11.068;2023-04-06T09:01:21;97986.81;;;15.82;29.02
3812;BME280;1921;49.368;11.068;2023-04-06T09:03:49;97979.97;;;16.21;28.13
3812;BME280;1921;49.368;11.068;2023-04-06T09:06:16;97931.91;;;16.39;27.77
3812;BME280;1921;49.368;11.068;2023-04-06T09:08:42;97911.78;;;16.64;28.00
3812;BME280;1921;49.368;11.068;2023-04-06T09:11:08;97978.38;;;16.98;26.74
3812;BME280;1921;49.368;11.068;2023-04-06T09:13:53;97944.22;;;16.65;28.15
3812;BME280;1921;49.368;11.068;2023-04-06T09:16:23;97935.75;;;17.14;27.30
3812;BME280;1921;49.368;11.068;2023-04-06T09:18:49;97935.34;;;17.11;27.13
3812;BME280;1921;49.368;11.068;2023-04-06T09:21:19;97971.50;;;17.35;26.17
3812;BME280;1921;49.368;11.068;2023-04-06T09:23:45;97935.81;;;16.17;28.66
3812;BME280;1921;49.368;11.068;2023-04-06T09:28:56;97955.53;;;16.85;27.86
3812;BME280;1921;49.368;11.068;2023-04-06T09:31:28;97927.91;;;16.23;26.67
3812;BME280;1921;49.368;11.068;2023-04-06T09:33:54;97939.47;;;17.32;26.59
3812;BME280;1921;49.368;11.068;2023-04-06T09:36:35;97929.38;;;17.29;26.55
3812;BME280;1921;49.368;11.068;2023-04-06T09:39:03;97878.59;;;15.85;27.79
3812;BME280;1921;49.368;11.068;2023-04-06T09:41:34;97916.53;;;16.42;27.19
3812;BME280;1921;49.368;11.068;2023-04-06T09:44:06;97925.22;;;17.71;26.43
3812;BME280;1921;49.368;11.068;2023-04-06T09:46:38;97923.66;;;18.13;24.95
3812;BME280;1921;49.368;11.068;2023-04-06T09:49:06;97940.22;;;17.77;24.56
3812;BME280;1921;49.368;11.068;2023-04-06T09:54:03;97928.78;;;18.33;23.91
3812;BME280;1921;49.368;11.068;2023-04-06T09:56:50;97950.91;;;19.05;23.23
3812;BME280;1921;49.368;11.068;2023-04-06T10:05:46;97952.28;;;20.22;22.12
3812;BME280;1921;49.368;11.068;2023-04-06T10:08:16;97931.31;;;20.43;21.86
3812;BME280;1921;49.368;11.068;2023-04-06T10:10:43;97923.94;;;20.57;21.22
3812;BME280;1921;49.368;11.068;2023-04-06T10:13:11;97915.63;;;20.30;22.34
3812;BME280;1921;49.368;11.068;2023-04-06T10:15:38;97891.50;;;21.07;21.79
3812;BME280;1921;49.368;11.068;2023-04-06T10:18:06;97949.16;;;21.40;21.23
3812;BME280;1921;49.368;11.068;2023-04-06T10:21:06;97897.38;;;20.81;21.84
3812;BME280;1921;49.368;11.068;2023-04-06T10:24:00;97894.16;;;21.36;21.21
3812;BME280;1921;49.368;11.068;2023-04-06T10:26:28;97908.69;;;20.76;20.70
3812;BME280;1921;49.368;11.068;2023-04-06T10:28:54;97908.06;;;20.10;21.79
3812;BME280;1921;49.368;11.068;2023-04-06T10:31:25;97889.06;;;20.25;23.30
3812;BME280;1921;49.368;11.068;2023-04-06T10:34:02;97910.56;;;20.05;21.80
3812;BME280;1921;49.368;11.068;2023-04-06T10:36:35;97848.88;;;20.16;21.85
3812;BME280;1921;49.368;11.068;2023-04-06T10:39:04;97889.69;;;20.56;21.89
3812;BME280;1921;49.368;11.068;2023-04-06T10:41:42;97859.34;;;20.11;20.80
3812;BME280;1921;49.368;11.068;2023-04-06T10:44:20;97908.31;;;21.41;22.02
3812;BME280;1921;49.368;11.068;2023-04-06T10:46:55;97925.84;;;22.65;20.86
3812;BME280;1921;49.368;11.068;2023-04-06T10:49:21;97861.75;;;22.18;19.71
3812;BME280;1921;49.368;11.068;2023-04-06T10:51:53;97833.19;;;22.30;19.50
3812;BME280;1921;49.368;11.068;2023-04-06T10:54:21;97865.63;;;20.86;20.10
3812;BME280;1921;49.368;11.068;2023-04-06T10:56:48;97848.81;;;19.34;21.10
3812;BME280;1921;49.368;11.068;2023-04-06T10:59:19;97859.50;;;19.28;22.34
3812;BME280;1921;49.368;11.068;2023-04-06T11:01:45;97866.38;;;20.06;22.47
3812;BME280;1921;49.368;11.068;2023-04-06T11:04:16;97855.84;;;20.58;21.56
3812;BME280;1921;49.368;11.068;2023-04-06T11:06:49;97835.47;;;20.87;21.55
3812;BME280;1921;49.368;11.068;2023-04-06T11:09:29;97835.81;;;20.79;20.83
3812;BME280;1921;49.368;11.068;2023-04-06T11:11:57;97887.38;;;22.29;19.41
3812;BME280;1921;49.368;11.068;2023-04-06T11:14:23;97878.44;;;19.25;21.13
3812;BME280;1921;49.368;11.068;2023-04-06T11:16:49;97874.97;;;19.54;21.20
3812;BME280;1921;49.368;11.068;2023-04-06T11:19:18;97844.31;;;17.90;22.87
3812;BME280;1921;49.368;11.068;2023-04-06T11:21:48;97826.00;;;19.10;22.23
3812;BME280;1921;49.368;11.068;2023-04-06T11:24:23;97842.78;;;18.55;22.38
3812;BME280;1921;49.368;11.068;2023-04-06T11:26:58;97873.69;;;19.45;22.03
3812;BME280;1921;49.368;11.068;2023-04-06T11:29:29;97860.09;;;16.25;24.89
3812;BME280;1921;49.368;11.068;2023-04-06T11:32:01;97842.16;;;15.36;26.81
3812;BME280;1921;49.368;11.068;2023-04-06T11:34:29;97832.22;;;16.56;24.85
3812;BME280;1921;49.368;11.068;2023-04-06T11:36:59;97819.34;;;17.67;24.31
3812;BME280;1921;49.368;11.068;2023-04-06T11:39:27;97828.31;;;18.58;22.62
3812;BME280;1921;49.368;11.068;2023-04-06T11:41:58;97834.88;;;18.37;23.65
3812;BME280;1921;49.368;11.068;2023-04-06T11:44:43;97859.31;;;18.51;22.58
3812;BME280;1921;49.368;11.068;2023-04-06T11:47:12;97825.09;;;19.81;22.01
3812;BME280;1921;49.368;11.068;2023-04-06T11:49:41;97727.25;;;19.86;21.53
3812;BME280;1921;49.368;11.068;2023-04-06T11:52:27;97833.69;;;20.92;20.13
3812;BME280;1921;49.368;11.068;2023-04-06T11:54:54;97823.28;;;20.34;20.81
3812;BME280;1921;49.368;11.068;2023-04-06T11:57:22;97856.38;;;20.08;21.93
3812;BME280;1921;49.368;11.068;2023-04-06T11:59:51;97797.53;;;19.47;21.66
3812;BME280;1921;49.368;11.068;2023-04-06T12:02:17;97856.63;;;19.95;21.57
3812;BME280;1921;49.368;11.068;2023-04-06T12:04:43;97791.28;;;20.24;21.39
3812;BME280;1921;49.368;11.068;2023-04-06T12:07:09;97836.28;;;21.04;21.68
3812;BME280;1921;49.368;11.068;2023-04-06T12:09:35;97807.66;;;21.52;20.84
3812;BME280;1921;49.368;11.068;2023-04-06T12:12:03;97795.56;;;21.61;19.13
3812;BME280;1921;49.368;11.068;2023-04-06T12:14:29;97817.84;;;21.60;19.91
3812;BME280;1921;49.368;11.068;2023-04-06T12:16:57;97806.47;;;21.14;19.45
3812;BME280;1921;49.368;11.068;2023-04-06T12:19:23;97842.47;;;21.10;20.08
3812;BME280;1921;49.368;11.068;2023-04-06T12:21:52;97828.81;;;21.01;20.43
3812;BME280;1921;49.368;11.068;2023-04-06T12:24:19;97781.31;;;20.54;20.64
3812;BME280;1921;49.368;11.068;2023-04-06T12:26:45;97791.88;;;18.30;22.10
3812;BME280;1921;49.368;11.068;2023-04-06T12:29:11;97794.38;;;18.43;22.55
3812;BME280;1921;49.368;11.068;2023-04-06T12:31:38;97772.56;;;19.31;21.96
3812;BME280;1921;49.368;11.068;2023-04-06T12:34:06;97820.81;;;19.69;21.35
3812;BME280;1921;49.368;11.068;2023-04-06T12:36:32;97774.78;;;19.46;21.25
3812;BME280;1921;49.368;11.068;2023-04-06T12:38:59;97785.97;;;19.60;20.63
3812;BME280;1921;49.368;11.068;2023-04-06T12:41:26;97791.19;;;15.83;24.32
3812;BME280;1921;49.368;11.068;2023-04-06T12:43:51;97806.28;;;17.54;23.46
3812;BME280;1921;49.368;11.068;2023-04-06T12:46:17;97814.78;;;19.26;22.03
3812;BME280;1921;49.368;11.068;2023-04-06T12:48:43;97785.91;;;20.07;21.45
3812;BME280;1921;49.368;11.068;2023-04-06T12:51:09;97776.28;;;20.69;20.48
3812;BME280;1921;49.368;11.068;2023-04-06T12:53:35;97758.03;;;21.52;19.90
3812;BME280;1921;49.368;11.068;2023-04-06T12:56:02;97752.22;;;21.94;18.90
3812;BME280;1921;49.368;11.068;2023-04-06T12:58:28;97797.31;;;22.54;19.71
3812;BME280;1921;49.368;11.068;2023-04-06T13:00:55;97766.44;;;22.75;17.74
3812;BME280;1921;49.368;11.068;2023-04-06T13:03:23;97796.41;;;21.44;18.45
3812;BME280;1921;49.368;11.068;2023-04-06T13:05:50;97769.81;;;21.28;19.78
3812;BME280;1921;49.368;11.068;2023-04-06T13:08:18;97770.25;;;21.36;18.52
3812;BME280;1921;49.368;11.068;2023-04-06T13:10:47;97778.19;;;19.12;20.86
3812;BME280;1921;49.368;11.068;2023-04-06T13:13:15;97802.41;;;20.49;20.25
3812;BME280;1921;49.368;11.068;2023-04-06T13:15:42;97765.94;;;20.85;20.01
3812;BME280;1921;49.368;11.068;2023-04-06T13:18:08;97791.94;;;21.00;19.74
3812;BME280;1921;49.368;11.068;2023-04-06T13:20:34;97804.66;;;19.35;21.72
3812;BME280;1921;49.368;11.068;2023-04-06T13:23:01;97810.72;;;16.65;24.71
3812;BME280;1921;49.368;11.068;2023-04-06T13:25:26;97782.91;;;17.33;24.07